Time;durP1;ratioP1;P1;durP2;ratioP2;P2;SDS_P1;SDS_P2;PMS_P1;PMS_P2;Temp;Humidity;BMP_temperature;BMP_pressure;BME280_temperature;BME280_humidity;BME280_pressure;Samples;Min_cycle;Max_cycle;Signal;HPM_P1;HPM_P2
2023/11/29 00:00:15;;;;;;;14.13;9.60;;;0.70;99.90;;;;;;5033148;28;20423;-71
2023/11/29 00:02:41;;;;;;;11.23;9.80;;;0.70;99.90;;;;;;5037907;28;20166;-71
2023/11/29 00:05:08;;;;;;;14.30;11.40;;;0.70;99.90;;;;;;5012297;28;20500;-71
2023/11/29 00:07:34;;;;;;;10.70;9.10;;;0.70;99.90;;;;;;5030439;28;20194;-71
2023/11/29 00:09:59;;;;;;;13.60;10.80;;;0.80;99.90;;;;;;5044113;28;20436;-71
2023/11/29 00:12:25;;;;;;;14.83;10.37;;;0.80;99.90;;;;;;5051962;28;20416;-71
2023/11/29 00:14:50;;;;;;;12.90;10.13;;;0.70;99.90;;;;;;5052006;28;20177;-71
2023/11/29 00:17:16;;;;;;;13.07;9.80;;;0.70;99.90;;;;;;5051720;28;20197;-71
2023/11/29 00:19:42;;;;;;;12.27;9.80;;;0.70;99.90;;;;;;5031691;28;20622;-71
2023/11/29 00:22:07;;;;;;;11.57;10.27;;;0.60;99.90;;;;;;5030423;28;20190;-71
2023/11/29 00:24:33;;;;;;;12.30;9.80;;;0.70;99.90;;;;;;5032670;28;20218;-71
2023/11/29 00:26:58;;;;;;;18.00;10.40;;;0.70;99.90;;;;;;5051503;28;20189;-71
2023/11/29 00:29:24;;;;;;;14.07;10.37;;;0.70;99.90;;;;;;5040030;28;20537;-71
2023/11/29 00:31:50;;;;;;;13.00;10.37;;;0.70;99.90;;;;;;5032384;28;20421;-71
2023/11/29 00:34:15;;;;;;;11.93;10.30;;;0.70;99.90;;;;;;5034306;28;20179;-71
2023/11/29 00:36:41;;;;;;;12.33;10.80;;;0.60;99.90;;;;;;5036199;28;20178;-71
2023/11/29 00:39:06;;;;;;;15.90;11.70;;;0.60;99.90;;;;;;5043976;28;20170;-72
2023/11/29 00:41:32;;;;;;;12.40;10.93;;;0.60;99.90;;;;;;5036313;28;20186;-71
2023/11/29 00:43:57;;;;;;;16.33;11.73;;;0.60;99.90;;;;;;5035529;28;20182;-71
2023/11/29 00:46:23;;;;;;;13.73;10.80;;;0.50;99.90;;;;;;5035411;28;20542;-71
2023/11/29 00:48:48;;;;;;;14.40;10.17;;;0.50;99.90;;;;;;5035281;28;20578;-71
2023/11/29 00:51:14;;;;;;;12.57;11.20;;;0.50;99.90;;;;;;5045361;28;20166;-71
2023/11/29 00:53:40;;;;;;;17.33;12.47;;;0.50;99.90;;;;;;5051144;28;20174;-71
2023/11/29 00:56:06;;;;;;;13.93;10.27;;;0.50;99.90;;;;;;5049922;28;20188;-71
2023/11/29 00:58:31;;;;;;;14.30;11.23;;;0.50;99.90;;;;;;5035252;28;20205;-71
2023/11/29 01:00:57;;;;;;;13.00;10.27;;;0.50;99.90;;;;;;5035374;28;20429;-71
2023/11/29 01:03:22;;;;;;;15.00;11.53;;;0.40;99.90;;;;;;5022878;28;20679;-71
2023/11/29 01:05:48;;;;;;;12.10;9.73;;;0.40;99.90;;;;;;5031852;28;20220;-71
2023/11/29 01:08:13;;;;;;;13.20;9.93;;;0.30;99.90;;;;;;5044117;28;20267;-71
2023/11/29 01:10:39;;;;;;;14.80;11.07;;;0.20;99.90;;;;;;5035277;28;20175;-71
2023/11/29 01:13:06;;;;;;;12.73;11.30;;;0.20;99.90;;;;;;5035074;28;20198;-71
2023/11/29 01:15:31;;;;;;;13.77;11.77;;;0.20;99.90;;;;;;5037600;28;20466;-71
2023/11/29 01:17:57;;;;;;;12.67;10.47;;;0.20;99.90;;;;;;5034937;28;20476;-71
2023/11/29 01:20:23;;;;;;;13.30;10.17;;;0.20;99.90;;;;;;5044851;28;20190;-71
2023/11/29 01:22:48;;;;;;;12.17;9.67;;;0.20;99.90;;;;;;5043611;28;20200;-71
2023/11/29 01:25:14;;;;;;;15.07;11.50;;;0.20;99.90;;;;;;5040418;28;20268;-71
2023/11/29 01:27:40;;;;;;;12.73;10.70;;;0.20;99.90;;;;;;5043875;28;20218;-71
2023/11/29 01:30:07;;;;;;;16.87;10.60;;;0.10;99.90;;;;;;5039219;28;20176;-71
2023/11/29 01:32:33;;;;;;;14.73;10.73;;;0.20;99.90;;;;;;5035480;28;20793;-71
2023/11/29 01:34:58;;;;;;;16.97;9.73;;;0.20;99.90;;;;;;5034790;28;20444;-71
2023/11/29 01:37:24;;;;;;;13.30;10.20;;;0.20;99.90;;;;;;5037555;28;20452;-71
2023/11/29 01:39:49;;;;;;;12.07;9.37;;;0.30;99.90;;;;;;5045428;28;20209;-71
2023/11/29 01:42:15;;;;;;;15.13;11.03;;;0.30;99.90;;;;;;5050055;28;20228;-71
2023/11/29 01:44:40;;;;;;;14.40;11.27;;;0.30;99.90;;;;;;5037085;28;20182;-71
2023/11/29 01:47:14;;;;;;;13.00;10.33;;;0.20;99.90;;;;;;5044513;28;20190;-71
2023/11/29 01:49:40;;;;;;;14.77;10.20;;;0.30;99.90;;;;;;5054239;28;20190;-71
2023/11/29 01:52:08;;;;;;;11.43;8.43;;;0.30;99.90;;;;;;5045874;28;20435;-71
2023/11/29 01:54:34;;;;;;;12.43;10.10;;;0.10;99.90;;;;;;5043083;28;20432;-71
2023/11/29 01:56:59;;;;;;;12.73;8.87;;;0.00;99.90;;;;;;5036147;28;20538;-71
2023/11/29 01:59:25;;;;;;;12.20;8.10;;;0.00;99.90;;;;;;5034727;28;20245;-71
2023/11/29 02:01:50;;;;;;;13.03;9.10;;;-0.10;99.90;;;;;;5043181;28;20652;-71
2023/11/29 02:04:16;;;;;;;12.50;10.17;;;-0.10;99.90;;;;;;5045898;28;20579;-71
2023/11/29 02:06:42;;;;;;;12.47;9.40;;;-0.10;99.90;;;;;;5032905;28;20225;-71
2023/11/29 02:09:08;;;;;;;9.20;7.67;;;-0.20;99.90;;;;;;5033746;28;20838;-71
2023/11/29 02:11:39;;;;;;;9.80;8.03;;;-0.20;99.90;;;;;;5034474;28;20425;-71
2023/11/29 02:14:05;;;;;;;10.03;7.73;;;-0.20;99.90;;;;;;5033923;28;20167;-71
2023/11/29 02:16:31;;;;;;;11.70;8.83;;;-0.20;99.90;;;;;;5042210;28;20432;-71
2023/11/29 02:18:56;;;;;;;13.27;9.77;;;-0.20;99.90;;;;;;5044294;28;20443;-71
2023/11/29 02:21:24;;;;;;;12.13;8.93;;;-0.30;99.90;;;;;;5038470;28;20182;-71
2023/11/29 02:24:03;;;;;;;9.80;8.13;;;-0.30;99.90;;;;;;5017942;28;20175;-72
2023/11/29 02:26:29;;;;;;;9.83;7.50;;;-0.30;99.90;;;;;;5026240;28;20468;-71
2023/11/29 02:28:54;;;;;;;9.90;7.33;;;-0.40;99.90;;;;;;5031655;28;20827;-71
2023/11/29 02:31:20;;;;;;;12.80;9.03;;;-0.40;99.90;;;;;;5033742;28;20182;-71
2023/11/29 02:33:45;;;;;;;8.30;7.30;;;-0.50;99.90;;;;;;5032903;28;20193;-71
2023/11/29 02:36:11;;;;;;;10.73;7.77;;;-0.50;99.90;;;;;;5033031;28;20204;-72
2023/11/29 02:38:36;;;;;;;9.37;8.03;;;-0.60;99.90;;;;;;5033132;28;20229;-72
2023/11/29 02:41:02;;;;;;;10.23;8.03;;;-0.70;99.90;;;;;;5031043;28;20170;-72
2023/11/29 02:43:27;;;;;;;11.37;8.40;;;-0.70;99.90;;;;;;5032087;28;20224;-71
2023/11/29 02:45:53;;;;;;;10.90;8.30;;;-0.70;99.90;;;;;;5033541;28;20237;-72
2023/11/29 02:48:18;;;;;;;12.47;7.63;;;-0.70;99.90;;;;;;5032417;28;20194;-72
2023/11/29 02:50:44;;;;;;;11.87;7.80;;;-0.80;99.90;;;;;;5032935;28;20189;-72
2023/11/29 02:53:09;;;;;;;10.93;8.10;;;-0.80;99.90;;;;;;5037414;28;20678;-71
2023/11/29 02:55:35;;;;;;;9.30;6.70;;;-0.80;99.90;;;;;;5045685;28;20261;-72
2023/11/29 02:58:01;;;;;;;11.60;8.17;;;-0.80;99.90;;;;;;5035090;28;20242;-71
2023/11/29 03:00:26;;;;;;;10.87;8.43;;;-0.80;99.90;;;;;;5036776;28;20253;-72
2023/11/29 03:02:53;;;;;;;11.90;7.23;;;-0.80;99.90;;;;;;5033110;28;20208;-72
2023/11/29 03:05:18;;;;;;;11.47;7.47;;;-0.80;99.90;;;;;;5021206;28;20256;-72
2023/11/29 03:07:44;;;;;;;15.30;7.60;;;-0.90;99.90;;;;;;5017966;28;20449;-71
2023/11/29 03:10:09;;;;;;;9.97;6.90;;;-0.90;99.90;;;;;;5038519;28;20178;-71
2023/11/29 03:12:35;;;;;;;9.83;6.27;;;-0.80;99.90;;;;;;5033157;28;20181;-71
2023/11/29 03:15:00;;;;;;;11.43;6.93;;;-0.80;99.90;;;;;;5033764;28;20219;-71
2023/11/29 03:17:26;;;;;;;9.97;8.00;;;-0.80;99.90;;;;;;5052408;28;20196;-71
2023/11/29 03:19:51;;;;;;;9.87;7.40;;;-0.80;99.90;;;;;;5047969;28;20529;-71
2023/11/29 03:22:17;;;;;;;10.37;8.17;;;-0.80;99.90;;;;;;5050168;28;20684;-71
2023/11/29 03:24:46;;;;;;;9.83;7.50;;;-0.80;99.90;;;;;;5052027;28;20186;-71
2023/11/29 03:27:11;;;;;;;7.77;6.07;;;-0.80;99.90;;;;;;5040431;28;20197;-71
2023/11/29 03:29:37;;;;;;;10.50;7.60;;;-0.80;99.90;;;;;;5026377;28;20433;-71
2023/11/29 03:32:03;;;;;;;12.33;8.50;;;-0.80;99.90;;;;;;5022705;28;20257;-72
2023/11/29 03:34:28;;;;;;;9.47;7.60;;;-0.80;99.90;;;;;;5032639;28;20544;-71
2023/11/29 03:36:54;;;;;;;12.60;7.83;;;-0.80;99.90;;;;;;5032927;28;20808;-71
2023/11/29 03:39:20;;;;;;;12.00;8.50;;;-0.80;99.90;;;;;;5032958;28;20174;-71
2023/11/29 03:41:45;;;;;;;12.00;7.30;;;-0.90;99.90;;;;;;5038109;28;20190;-71
2023/11/29 03:44:11;;;;;;;13.40;8.63;;;-0.90;99.90;;;;;;5043879;28;20292;-71
2023/11/29 03:46:36;;;;;;;9.27;7.80;;;-0.90;99.90;;;;;;5055114;28;20221;-71
2023/11/29 03:49:03;;;;;;;9.17;7.10;;;-1.00;99.90;;;;;;5043892;28;20721;-71
2023/11/29 03:51:29;;;;;;;10.70;7.03;;;-1.00;99.90;;;;;;5044311;28;20182;-71
2023/11/29 03:53:54;;;;;;;10.57;8.20;;;-1.00;99.90;;;;;;5044794;28;20451;-71
2023/11/29 03:56:20;;;;;;;11.77;7.80;;;-1.00;99.90;;;;;;5044665;28;20449;-72
2023/11/29 03:58:45;;;;;;;9.73;6.80;;;-0.90;99.90;;;;;;5044612;28;20236;-71
2023/11/29 04:01:11;;;;;;;10.70;7.80;;;-0.90;99.90;;;;;;5038591;28;20224;-71
2023/11/29 04:03:36;;;;;;;11.60;7.90;;;-0.90;99.90;;;;;;5031271;28;20673;-71
2023/11/29 04:06:02;;;;;;;10.73;7.83;;;-0.90;99.90;;;;;;5016304;28;20206;-71
2023/11/29 04:08:28;;;;;;;11.70;8.60;;;-0.90;99.90;;;;;;5031195;28;20209;-71
2023/11/29 04:10:54;;;;;;;11.57;8.40;;;-0.90;99.90;;;;;;5029542;28;20174;-71
2023/11/29 04:13:19;;;;;;;11.67;8.90;;;-0.80;99.90;;;;;;5032085;28;20424;-71
2023/11/29 04:15:45;;;;;;;13.70;8.67;;;-0.90;99.90;;;;;;5031990;28;20261;-71
2023/11/29 04:18:10;;;;;;;11.67;8.07;;;-0.90;99.90;;;;;;5031803;28;20196;-71
2023/11/29 04:20:36;;;;;;;13.83;10.37;;;-0.90;99.90;;;;;;5031933;28;20193;-71
2023/11/29 04:23:01;;;;;;;9.33;7.50;;;-1.00;99.90;;;;;;5043617;28;20542;-71
2023/11/29 04:25:27;;;;;;;10.67;8.23;;;-1.10;99.90;;;;;;5039507;28;20204;-71
2023/11/29 04:27:52;;;;;;;12.10;8.33;;;-1.10;99.90;;;;;;5049265;28;20229;-71
2023/11/29 04:30:18;;;;;;;10.63;8.00;;;-1.10;99.90;;;;;;5042329;28;20222;-71
2023/11/29 04:32:44;;;;;;;12.57;9.03;;;-1.20;99.90;;;;;;5031514;28;20832;-71
2023/11/29 04:35:09;;;;;;;10.50;8.10;;;-1.20;99.90;;;;;;5030080;28;20444;-70
2023/11/29 04:37:35;;;;;;;11.60;9.13;;;-1.20;99.90;;;;;;5031643;28;20198;-71
2023/11/29 04:40:00;;;;;;;13.73;9.50;;;-1.20;99.90;;;;;;5031658;28;20182;-71
2023/11/29 04:42:26;;;;;;;10.30;8.37;;;-1.10;99.90;;;;;;5031764;28;20631;-71
2023/11/29 04:44:51;;;;;;;13.80;9.00;;;-1.10;99.90;;;;;;5030763;28;20726;-71
2023/11/29 04:47:18;;;;;;;13.90;8.90;;;-1.10;99.90;;;;;;5031122;28;20251;-71
2023/11/29 04:49:43;;;;;;;13.80;8.63;;;-1.00;99.90;;;;;;5031610;28;20173;-70
2023/11/29 04:52:09;;;;;;;17.97;8.63;;;-0.90;99.90;;;;;;5028628;28;20430;-71
2023/11/29 04:54:34;;;;;;;12.60;8.97;;;-0.90;99.90;;;;;;5031036;28;20178;-70
2023/11/29 04:57:00;;;;;;;11.70;8.67;;;-0.90;99.90;;;;;;5031253;28;20216;-71
2023/11/29 04:59:26;;;;;;;11.90;7.67;;;-0.90;99.90;;;;;;5031449;28;20174;-71
2023/11/29 05:01:51;;;;;;;13.63;9.10;;;-0.90;99.90;;;;;;5031922;28;20182;-71
2023/11/29 05:04:18;;;;;;;11.57;7.57;;;-0.90;99.90;;;;;;5031286;28;20181;-70
2023/11/29 05:06:43;;;;;;;13.37;8.53;;;-0.90;99.90;;;;;;5031196;28;20198;-70
2023/11/29 05:09:14;;;;;;;12.50;8.10;;;-0.90;99.90;;;;;;5031741;28;20420;-71
2023/11/29 05:11:40;;;;;;;11.10;7.83;;;-0.80;99.90;;;;;;5040206;28;20162;-70
2023/11/29 05:14:05;;;;;;;11.43;8.20;;;-0.80;99.90;;;;;;5021192;28;20440;-71
2023/11/29 05:16:31;;;;;;;13.40;8.93;;;-0.80;99.90;;;;;;5034479;28;20463;-71
2023/11/29 05:18:57;;;;;;;10.67;8.73;;;-0.70;99.90;;;;;;5051321;28;20180;-71
2023/11/29 05:21:22;;;;;;;10.30;8.30;;;-0.70;99.90;;;;;;5043513;28;20235;-71
2023/11/29 05:23:48;;;;;;;11.43;8.03;;;-0.70;99.90;;;;;;5034692;28;20178;-70
2023/11/29 05:26:14;;;;;;;10.90;8.50;;;-0.60;99.90;;;;;;5034651;28;20206;-71
2023/11/29 05:28:39;;;;;;;13.87;8.83;;;-0.60;99.90;;;;;;5034485;28;20185;-71
2023/11/29 05:31:05;;;;;;;12.83;8.50;;;-0.50;99.90;;;;;;5042291;28;20448;-71
2023/11/29 05:33:30;;;;;;;11.37;8.77;;;-0.40;99.90;;;;;;5035658;28;20170;-71
2023/11/29 05:35:56;;;;;;;12.50;8.07;;;-0.40;99.90;;;;;;5034447;28;20305;-71
2023/11/29 05:38:23;;;;;;;9.93;8.93;;;-0.30;99.90;;;;;;5034507;28;20190;-70
2023/11/29 05:40:49;;;;;;;11.33;8.30;;;-0.30;99.90;;;;;;5034574;28;20197;-70
2023/11/29 05:43:15;;;;;;;9.37;7.50;;;-0.20;99.90;;;;;;5029645;28;20418;-70
2023/11/29 05:45:40;;;;;;;12.47;8.10;;;-0.20;99.90;;;;;;5025323;28;20198;-70
2023/11/29 05:48:06;;;;;;;11.03;8.60;;;-0.20;99.90;;;;;;5034224;28;20199;-70
2023/11/29 05:50:31;;;;;;;10.07;8.27;;;-0.30;99.90;;;;;;5034422;28;20175;-70
2023/11/29 05:52:58;;;;;;;10.73;8.07;;;-0.20;99.90;;;;;;5034407;28;20688;-70
2023/11/29 05:55:24;;;;;;;10.70;8.10;;;-0.30;99.90;;;;;;5032488;28;20651;-70
2023/11/29 05:57:50;;;;;;;13.37;8.53;;;-0.30;99.90;;;;;;5070665;22;20474;-71
2023/11/29 06:00:18;;;;;;;13.10;8.80;;;-0.30;99.90;;;;;;5073899;28;20427;-71
2023/11/29 06:02:44;;;;;;;14.93;9.47;;;-0.30;99.90;;;;;;5079193;28;20231;-71
2023/11/29 06:05:10;;;;;;;15.20;9.13;;;-0.30;99.90;;;;;;5082136;28;20451;-71
2023/11/29 06:07:37;;;;;;;11.57;9.13;;;-0.20;99.90;;;;;;5084044;28;20454;-71
2023/11/29 06:10:04;;;;;;;13.73;8.37;;;-0.20;99.90;;;;;;5100328;28;20426;-71
2023/11/29 06:12:30;;;;;;;13.30;9.10;;;-0.20;99.90;;;;;;5095218;28;20436;-71
2023/11/29 06:14:56;;;;;;;13.53;9.53;;;-0.20;99.90;;;;;;5084636;28;20783;-71
2023/11/29 06:17:23;;;;;;;12.80;9.57;;;-0.20;99.90;;;;;;5082235;28;20457;-71
2023/11/29 06:19:49;;;;;;;13.53;10.17;;;-0.20;99.90;;;;;;5105824;28;20248;-71
2023/11/29 06:22:15;;;;;;;17.00;10.37;;;-0.20;99.90;;;;;;5093314;28;20528;-71
2023/11/29 06:24:41;;;;;;;13.60;9.97;;;-0.20;99.90;;;;;;5107879;28;20918;-71
2023/11/29 06:27:06;;;;;;;12.00;9.40;;;-0.20;99.90;;;;;;5089799;28;20849;-71
2023/11/29 06:29:32;;;;;;;9.80;7.50;;;-0.20;99.90;;;;;;5104053;28;20525;-71
2023/11/29 06:31:57;;;;;;;13.90;9.70;;;-0.20;99.90;;;;;;5093284;28;20186;-71
2023/11/29 06:34:23;;;;;;;13.20;8.80;;;-0.20;99.90;;;;;;5090177;28;20176;-71
2023/11/29 06:36:49;;;;;;;14.33;10.07;;;-0.10;99.90;;;;;;5084040;28;20211;-71
2023/11/29 06:39:17;;;;;;;14.50;9.90;;;-0.10;99.90;;;;;;5089407;28;20203;-71
2023/11/29 06:41:47;;;;;;;12.23;8.47;;;-0.10;99.90;;;;;;5102765;28;20168;-71
2023/11/29 06:44:15;;;;;;;11.83;9.53;;;-0.10;99.90;;;;;;5089124;28;20467;-71
2023/11/29 06:46:41;;;;;;;11.00;8.43;;;-0.10;99.90;;;;;;5093027;28;20425;-69
2023/11/29 06:49:09;;;;;;;14.97;10.53;;;-0.10;99.90;;;;;;5086721;28;20963;-69
2023/11/29 06:51:35;;;;;;;13.77;7.93;;;0.00;99.90;;;;;;5099499;28;20304;-70
2023/11/29 06:54:01;;;;;;;13.40;8.87;;;0.00;99.90;;;;;;5093361;28;20422;-70
2023/11/29 06:56:27;;;;;;;11.90;8.33;;;0.00;99.90;;;;;;5092881;28;20458;-69
2023/11/29 06:58:53;;;;;;;12.37;9.33;;;0.00;99.90;;;;;;5080538;28;20947;-70
2023/11/29 07:01:18;;;;;;;13.00;9.73;;;0.00;99.90;;;;;;5072945;28;20180;-70
2023/11/29 07:03:44;;;;;;;12.50;8.30;;;0.00;99.90;;;;;;5072840;28;20169;-69
2023/11/29 07:06:19;;;;;;;13.13;9.87;;;0.00;99.90;;;;;;5072801;28;20680;-70
2023/11/29 07:08:46;;;;;;;12.90;9.90;;;0.10;99.90;;;;;;5072663;28;20192;-70
2023/11/29 07:11:12;;;;;;;14.40;9.50;;;0.10;99.90;;;;;;5072773;28;20450;-70
2023/11/29 07:13:37;;;;;;;12.00;9.03;;;0.10;99.90;;;;;;5079562;28;20457;-70
2023/11/29 07:16:03;;;;;;;11.23;9.00;;;0.10;99.90;;;;;;5092775;28;20627;-70
2023/11/29 07:18:29;;;;;;;14.20;9.30;;;0.10;99.90;;;;;;5092603;28;20184;-70
2023/11/29 07:20:54;;;;;;;11.80;8.43;;;0.10;99.90;;;;;;5092798;28;20418;-69
2023/11/29 07:23:22;;;;;;;12.03;7.43;;;0.10;99.90;;;;;;5092861;28;20641;-70
2023/11/29 07:25:48;;;;;;;11.30;8.63;;;0.10;99.90;;;;;;5092747;28;20171;-70
2023/11/29 07:28:14;;;;;;;13.43;9.60;;;0.20;99.90;;;;;;5090703;28;20507;-70
2023/11/29 07:30:40;;;;;;;10.50;8.60;;;0.30;99.90;;;;;;5091404;28;20418;-70
2023/11/29 07:33:05;;;;;;;11.00;7.63;;;0.40;99.90;;;;;;5092603;28;20160;-70
2023/11/29 07:35:31;;;;;;;11.73;8.47;;;0.50;99.90;;;;;;5092539;28;20278;-70
2023/11/29 07:37:56;;;;;;;9.20;7.13;;;0.60;99.90;;;;;;5090928;28;20188;-71
2023/11/29 07:40:22;;;;;;;12.47;7.30;;;0.60;99.90;;;;;;5092507;28;20216;-69
2023/11/29 07:42:48;;;;;;;9.20;7.33;;;0.60;99.90;;;;;;5090220;28;20232;-70
2023/11/29 07:45:14;;;;;;;9.73;7.20;;;0.70;99.90;;;;;;5091043;28;20175;-70
2023/11/29 07:47:40;;;;;;;8.03;6.83;;;0.90;99.90;;;;;;5091997;28;20439;-70
2023/11/29 07:50:06;;;;;;;9.00;6.17;;;1.10;99.90;;;;;;5092566;28;20267;-70
2023/11/29 07:52:35;;;;;;;10.07;7.53;;;1.10;99.90;;;;;;5092464;28;20173;-71
2023/11/29 07:55:02;;;;;;;7.80;6.80;;;1.10;99.90;;;;;;5092321;28;20481;-70
2023/11/29 07:57:28;;;;;;;10.20;7.00;;;1.00;99.90;;;;;;5090232;28;20919;-70
2023/11/29 07:59:53;;;;;;;7.77;6.97;;;0.90;99.90;;;;;;5091808;28;20414;-69
2023/11/29 08:02:19;;;;;;;8.03;7.23;;;0.90;99.90;;;;;;5072040;28;20169;-70
2023/11/29 08:04:44;;;;;;;13.10;9.03;;;0.80;99.90;;;;;;5072074;28;20510;-70
2023/11/29 08:07:10;;;;;;;8.73;6.63;;;0.80;99.90;;;;;;5071672;28;20583;-70
2023/11/29 08:09:35;;;;;;;9.00;6.57;;;0.80;99.90;;;;;;5071981;28;20171;-70
2023/11/29 08:12:01;;;;;;;5.30;4.80;;;0.70;99.90;;;;;;5073200;28;20176;-70
2023/11/29 08:14:27;;;;;;;8.47;7.57;;;0.70;99.90;;;;;;5071949;28;20169;-70
2023/11/29 08:16:52;;;;;;;10.43;6.07;;;0.80;99.90;;;;;;5071553;28;20238;-70
2023/11/29 08:19:18;;;;;;;9.00;6.33;;;0.80;99.90;;;;;;5071800;28;20435;-70
2023/11/29 08:21:43;;;;;;;9.30;7.47;;;0.90;99.90;;;;;;5071970;28;20173;-70
2023/11/29 08:24:09;;;;;;;9.00;6.40;;;0.90;99.90;;;;;;5072007;28;20524;-70
2023/11/29 08:26:35;;;;;;;10.07;6.20;;;0.90;99.90;;;;;;5072646;28;20169;-70
2023/11/29 08:29:00;;;;;;;7.47;6.70;;;0.90;99.90;;;;;;5071603;28;20205;-71
2023/11/29 08:31:27;;;;;;;6.03;5.43;;;1.00;99.90;;;;;;5088223;28;20434;-69
2023/11/29 08:33:52;;;;;;;6.80;5.40;;;1.00;99.90;;;;;;5091854;28;20259;-69
2023/11/29 08:36:19;;;;;;;5.93;5.17;;;1.00;99.90;;;;;;5091696;28;20553;-70
2023/11/29 08:38:46;;;;;;;6.63;6.00;;;1.00;99.90;;;;;;5091685;28;20195;-70
2023/11/29 08:41:12;;;;;;;8.10;6.03;;;1.10;99.90;;;;;;5090169;28;20457;-70
2023/11/29 08:43:37;;;;;;;7.53;6.20;;;1.10;99.90;;;;;;5091749;28;20446;-70
2023/11/29 08:46:03;;;;;;;9.97;5.27;;;1.20;99.90;;;;;;5091717;28;20523;-70
2023/11/29 08:48:29;;;;;;;7.73;5.43;;;1.20;99.90;;;;;;5091502;28;20204;-70
2023/11/29 08:50:55;;;;;;;6.63;6.00;;;1.20;99.90;;;;;;5091731;28;20500;-70
2023/11/29 08:53:22;;;;;;;6.03;5.50;;;1.20;99.90;;;;;;5091752;28;20180;-70
2023/11/29 08:55:48;;;;;;;6.90;5.17;;;1.20;99.90;;;;;;5094694;28;20199;-70
2023/11/29 08:58:13;;;;;;;7.20;5.60;;;1.30;99.90;;;;;;5093349;28;20457;-70
2023/11/29 09:00:41;;;;;;;8.03;6.70;;;1.30;99.90;;;;;;5095519;28;20709;-69
2023/11/29 09:03:09;;;;;;;9.40;6.50;;;1.40;99.90;;;;;;5095532;28;20179;-69
2023/11/29 09:05:34;;;;;;;7.47;5.30;;;1.40;99.90;;;;;;5095476;28;20803;-70
2023/11/29 09:08:00;;;;;;;9.80;6.30;;;1.40;99.90;;;;;;5095012;28;20433;-70
2023/11/29 09:10:26;;;;;;;8.10;6.17;;;1.40;99.90;;;;;;5094095;28;20172;-69
2023/11/29 09:12:51;;;;;;;7.27;5.77;;;1.30;99.90;;;;;;5093654;28;20176;-69
2023/11/29 09:15:17;;;;;;;8.03;6.17;;;1.30;99.90;;;;;;5095216;28;20192;-70
2023/11/29 09:17:45;;;;;;;6.03;5.00;;;1.30;99.90;;;;;;5094956;28;20201;-69
2023/11/29 09:20:11;;;;;;;8.80;6.40;;;1.30;99.90;;;;;;5095274;28;20549;-69
2023/11/29 09:22:37;;;;;;;6.13;4.80;;;1.30;99.90;;;;;;5095211;28;20418;-70
2023/11/29 09:25:03;;;;;;;7.13;5.80;;;1.40;99.90;;;;;;5093493;28;20181;-70
2023/11/29 09:27:29;;;;;;;7.93;5.80;;;1.50;99.90;;;;;;5094608;28;20215;-70
2023/11/29 09:29:54;;;;;;;7.93;6.20;;;1.50;99.90;;;;;;5095020;28;20449;-69
2023/11/29 09:32:20;;;;;;;6.77;5.40;;;1.70;99.90;;;;;;5095064;28;20229;-70
2023/11/29 09:34:46;;;;;;;16.63;10.27;;;1.90;99.90;;;;;;5094781;28;20203;-70
2023/11/29 09:37:12;;;;;;;7.00;5.77;;;1.90;99.90;;;;;;5094497;28;20187;-70
2023/11/29 09:39:37;;;;;;;9.03;5.67;;;1.90;99.90;;;;;;5094797;28;20164;-70
2023/11/29 09:42:04;;;;;;;7.73;5.93;;;2.00;99.90;;;;;;5087241;28;20415;-70
2023/11/29 09:44:30;;;;;;;7.10;5.90;;;2.00;99.90;;;;;;5074444;28;20530;-70
2023/11/29 09:46:58;;;;;;;7.77;5.73;;;2.00;99.90;;;;;;5074207;28;20442;-70
2023/11/29 09:49:24;;;;;;;5.97;5.13;;;2.20;99.90;;;;;;5074529;28;21080;-69
2023/11/29 09:51:50;;;;;;;6.50;4.93;;;2.20;99.90;;;;;;5074388;28;20499;-69
2023/11/29 09:54:15;;;;;;;7.33;4.60;;;2.10;99.90;;;;;;5074355;28;20419;-69
2023/11/29 09:56:41;;;;;;;6.17;5.10;;;2.10;99.90;;;;;;5074945;28;20199;-69
2023/11/29 09:59:07;;;;;;;5.33;4.83;;;2.00;99.90;;;;;;5074042;28;20200;-70
2023/11/29 10:01:35;;;;;;;6.13;5.30;;;1.90;99.90;;;;;;5074198;28;20468;-70
2023/11/29 10:04:05;;;;;;;7.37;5.03;;;1.90;99.90;;;;;;5074096;28;20172;-70
2023/11/29 10:06:31;;;;;;;6.30;5.40;;;1.90;99.90;;;;;;5073045;28;20799;-69
2023/11/29 10:08:58;;;;;;;6.50;5.53;;;1.90;99.90;;;;;;5074906;28;20557;-69
2023/11/29 10:11:25;;;;;;;5.77;4.97;;;1.90;99.90;;;;;;5073948;28;20469;-70
2023/11/29 10:13:51;;;;;;;7.47;5.07;;;1.90;99.90;;;;;;5073882;28;20414;-70
2023/11/29 10:16:19;;;;;;;5.53;4.47;;;1.90;99.90;;;;;;5073678;28;20466;-70
2023/11/29 10:18:46;;;;;;;5.80;4.90;;;2.00;99.90;;;;;;5073662;28;20431;-70
2023/11/29 10:21:12;;;;;;;7.40;5.40;;;2.20;99.90;;;;;;5073411;28;20942;-70
2023/11/29 10:23:40;;;;;;;6.53;4.90;;;2.60;99.90;;;;;;5072469;28;20411;-70
2023/11/29 10:26:07;;;;;;;4.67;4.17;;;4.30;99.90;;;;;;5087575;28;20207;-70
2023/11/29 10:28:33;;;;;;;5.30;4.80;;;5.90;99.90;;;;;;5092175;28;20438;-70
2023/11/29 10:31:01;;;;;;;6.07;4.43;;;5.60;99.90;;;;;;5092576;28;20425;-70
2023/11/29 10:33:30;;;;;;;6.03;4.47;;;5.10;99.90;;;;;;5093832;28;20538;-70
2023/11/29 10:35:57;;;;;;;5.40;4.70;;;5.30;99.90;;;;;;5093682;28;20550;-70
2023/11/29 10:38:24;;;;;;;5.00;4.50;;;5.50;99.90;;;;;;5093225;28;20434;-70
2023/11/29 10:40:52;;;;;;;5.53;5.00;;;5.00;99.90;;;;;;5074544;28;20423;-70
2023/11/29 10:43:23;;;;;;;7.40;5.30;;;4.30;99.90;;;;;;5073294;28;20485;-70
2023/11/29 10:45:53;;;;;;;5.40;4.90;;;4.10;99.90;;;;;;5073321;28;20423;-70
2023/11/29 10:48:26;;;;;;;5.50;4.80;;;4.50;99.90;;;;;;5072912;28;20484;-70
2023/11/29 10:50:52;;;;;;;6.60;5.60;;;5.00;99.90;;;;;;5073122;28;20419;-71
2023/11/29 10:53:19;;;;;;;5.33;4.87;;;5.00;99.90;;;;;;5073655;28;20408;-70
2023/11/29 10:55:47;;;;;;;5.47;4.97;;;4.80;99.90;;;;;;5074799;28;20454;-70
2023/11/29 10:58:28;;;;;;;5.93;4.53;;;4.30;99.90;;;;;;5072770;28;20459;-70
2023/11/29 11:00:53;;;;;;;7.17;5.50;;;3.80;99.90;;;;;;5072997;28;20411;-70
2023/11/29 11:03:42;;;;;;;6.53;5.00;;;3.60;99.90;;;;;;5072924;28;20778;-70
2023/11/29 11:06:23;;;;;;;5.93;4.70;;;3.30;99.90;;;;;;5072846;28;20518;-70
2023/11/29 11:08:55;;;;;;;4.30;3.80;;;3.20;99.90;;;;;;5073814;28;20454;-70
2023/11/29 11:11:39;;;;;;;6.10;4.83;;;3.20;99.90;;;;;;5071472;28;20492;-70
2023/11/29 11:14:21;;;;;;;5.07;4.57;;;3.20;99.90;;;;;;5072699;28;20471;-69
2023/11/29 11:17:00;;;;;;;4.80;4.40;;;3.30;99.90;;;;;;5072279;28;21010;-70
2023/11/29 11:19:40;;;;;;;4.77;4.37;;;3.20;99.90;;;;;;5072605;28;20419;-70
2023/11/29 11:22:09;;;;;;;5.13;4.63;;;3.00;99.90;;;;;;5072643;28;20510;-70
2023/11/29 11:24:55;;;;;;;4.17;3.77;;;3.60;99.90;;;;;;5073639;28;20427;-70
2023/11/29 11:27:34;;;;;;;3.63;3.33;;;6.70;99.90;;;;;;5072051;28;20510;-70
2023/11/29 11:30:15;;;;;;;4.20;3.80;;;9.30;99.90;;;;;;5072560;28;20411;-70
2023/11/29 11:32:40;;;;;;;4.27;3.87;;;10.00;99.90;;;;;;5072392;28;20422;-71
2023/11/29 11:35:18;;;;;;;4.90;4.20;;;10.60;98.30;;;;;;5072360;28;20447;-70
2023/11/29 11:37:48;;;;;;;4.60;4.10;;;11.40;96.30;;;;;;5072771;28;20211;-70
2023/11/29 11:40:15;;;;;;;4.10;3.80;;;11.70;92.00;;;;;;5072339;28;20502;-70
2023/11/29 11:42:42;;;;;;;4.57;4.17;;;12.30;91.50;;;;;;5072207;28;21205;-70
2023/11/29 11:45:09;;;;;;;4.40;4.00;;;12.70;86.80;;;;;;5070989;28;20423;-71
2023/11/29 11:47:37;;;;;;;4.47;4.07;;;12.60;85.40;;;;;;5071841;28;20458;-70
2023/11/29 11:50:04;;;;;;;5.33;4.90;;;13.40;82.90;;;;;;5072113;28;20441;-71
2023/11/29 11:52:30;;;;;;;5.70;5.30;;;13.40;77.00;;;;;;5072249;28;20923;-70
2023/11/29 11:54:55;;;;;;;4.57;4.27;;;13.10;79.70;;;;;;5087383;28;20425;-71
2023/11/29 11:59:51;;;;;;;4.07;3.77;;;13.70;74.30;;;;;;5010288;28;20207;-72
2023/11/29 12:02:17;;;;;;;3.80;3.60;;;13.00;75.30;;;;;;5012383;28;20476;-73
2023/11/29 12:04:42;;;;;;;4.80;4.43;;;12.50;74.70;;;;;;5012517;28;20605;-73
2023/11/29 12:07:08;;;;;;;3.93;3.60;;;11.90;80.50;;;;;;5012237;28;20181;-73
2023/11/29 12:09:34;;;;;;;4.13;3.83;;;11.60;80.90;;;;;;5012155;28;20199;-73
2023/11/29 12:12:13;;;;;;;9.70;4.50;;;11.20;85.20;;;;;;5012287;28;20171;-72
2023/11/29 12:14:43;;;;;;;5.43;4.73;;;9.90;91.30;;;;;;5012552;28;20173;-72
2023/11/29 12:17:10;;;;;;;4.83;4.33;;;9.00;96.50;;;;;;5012272;28;20458;-72
2023/11/29 12:19:36;;;;;;;4.33;3.93;;;8.20;99.30;;;;;;5012278;28;20441;-72
2023/11/29 12:22:02;;;;;;;4.70;4.30;;;8.20;99.90;;;;;;5010521;28;20479;-72
2023/11/29 12:24:41;;;;;;;3.77;3.47;;;7.80;99.90;;;;;;4992615;28;20171;-72
2023/11/29 12:27:07;;;;;;;3.50;3.20;;;7.60;99.90;;;;;;4973087;28;20430;-72
2023/11/29 12:29:36;;;;;;;3.50;3.20;;;6.90;99.90;;;;;;4974399;28;20455;-72
2023/11/29 12:32:04;;;;;;;4.70;4.00;;;6.40;99.90;;;;;;4977154;28;20458;-72
2023/11/29 12:34:32;;;;;;;3.93;3.60;;;5.80;99.90;;;;;;4977151;28;20442;-72
2023/11/29 12:36:58;;;;;;;4.00;3.63;;;5.30;99.90;;;;;;4975624;28;20486;-72
2023/11/29 12:39:33;;;;;;;4.17;3.77;;;5.30;99.90;;;;;;5013855;28;20510;-72
2023/11/29 12:41:59;;;;;;;4.50;4.10;;;5.10;99.90;;;;;;5016166;28;20586;-72
2023/11/29 12:44:25;;;;;;;5.70;5.17;;;4.90;99.90;;;;;;5016020;28;20417;-72